Terminal Aerodrome Forecast
Issued by NWS

Home | Current Version | Previous Version | Text Only | Print | Product List | Glossary On
Versions: 1 2 3 4 5 6 7 8 9 10 11 12 13 14 15 16 17 18 19 20 21 22 23 24 25 26
000
FTUS45 KREV 180520
TAFMEV
TAF
KMEV 180520Z 1806/1906 12006KT P6SM SCT200
     FM181400 23006KT P6SM SCT060 BKN080
     FM181800 24011G24KT P6SM VCSH SCT040 BKN080
     FM190300 24009KT P6SM FEW050=

USA.gov is the U.S. government's official web portal to all federal, state and local government web resources and services.